aviador You're here:

RKSI Decoded Metar

CHAJANG NI in KOREA
Report Time2017-04-24 13:00:00
UTC Time2017-04-24 13:17:52
Flight Rules vfr VFR
Wind150° at 08 kt
W.Decomp.*RWY 16: 8.0 kt HW 0.3 kt LCW
RWY 15: 7.9 kt HW 1.1 kt RCW
W.Rank150° ranks 10
Current wind is above 150° avg. (7.2)
Visibility9999 m
Phenomena:N/A
Clouds:N/A
Expected CloudBase > 1,600 ft AGL from Temp-Dew spread
CeilingNone
Temp12°C (ISA -3)
Dew Point08°C (77% RH)
AAT8.7°C
QNH1017 hPa
Density Alt-318 ft
Elevation23 ft
Report Wrong Elevation
Raw Report
RKSI 241300Z 15008KT CAVOK 12/08 Q1017 NOSIG=

Extra information for RKSI:More info

Metar Taf Metar & Taf Last 4 Metars F.Rules Stats Wind Profile Meteogram Temp Stats Airport Information Weather charts Add Link Nearby VenuesMetar ALERT Operation Metar Decoded Social comments